8W2

New Market Airport

New Market, Virginia, USA
METAR K8W2 200015Z AUTO 00000KT 10SM CLR 21/21 A3001 RMK AO1 T02100205
Observed Flight Rules
Sep-20 @ 00:15 UTC (27 minutes ago) Visual Flight Rules
Visibility Clouds
10 miles
  • Clear skies
Temperatures Readings
Current 21°C / 70°F
Dewpoint 21°C / 70°F
Humidity 100%
Altimeter 30.01" Hg
Pressure 1016 hPa
Elevation 297
METAR K8W2 200015Z AUTO 00000KT 10SM CLR 21/21 A3001 RMK AO1 T02100205
Observed Flight Rules
Sep-20 @ 00:15 UTC
(27 minutes ago)
VFR
Clouds
  • Clear skies
Temperature Dewpoint
21°C / 70°F 21°C / 70°F
Humidity Altimeter Pressure
100% 30.01" Hg 1016 hPa